sensor_id;sensor_type;location;lat;lon;timestamp;temperature;humidity
10278;DHT22;5184;51.376;7.148;2023-02-28T00:01:43;-1.00;99.90
10278;DHT22;5184;51.376;7.148;2023-02-28T00:04:11;-1.00;99.90
10278;DHT22;5184;51.376;7.148;2023-02-28T00:06:38;-1.00;83.10
10278;DHT22;5184;51.376;7.148;2023-02-28T00:09:05;-1.00;66.50
10278;DHT22;5184;51.376;7.148;2023-02-28T00:11:31;-1.10;1.00
10278;DHT22;5184;51.376;7.148;2023-02-28T00:13:58;-1.10;95.70
10278;DHT22;5184;51.376;7.148;2023-02-28T00:16:25;-1.10;99.90
10278;DHT22;5184;51.376;7.148;2023-02-28T00:18:52;-1.10;99.90
10278;DHT22;5184;51.376;7.148;2023-02-28T00:21:19;-1.10;99.90
10278;DHT22;5184;51.376;7.148;2023-02-28T00:23:45;-1.10;99.90
10278;DHT22;5184;51.376;7.148;2023-02-28T00:26:12;-1.10;99.90
10278;DHT22;5184;51.376;7.148;2023-02-28T00:28:38;-1.10;99.90
10278;DHT22;5184;51.376;7.148;2023-02-28T00:31:05;-1.10;99.90
10278;DHT22;5184;51.376;7.148;2023-02-28T00:33:32;-1.10;99.90
10278;DHT22;5184;51.376;7.148;2023-02-28T00:36:04;-1.10;99.90
10278;DHT22;5184;51.376;7.148;2023-02-28T00:38:30;-1.20;99.90
10278;DHT22;5184;51.376;7.148;2023-02-28T00:40:57;-1.20;90.20
10278;DHT22;5184;51.376;7.148;2023-02-28T00:43:24;-1.20;76.40
10278;DHT22;5184;51.376;7.148;2023-02-28T00:45:52;-1.40;94.60
10278;DHT22;5184;51.376;7.148;2023-02-28T00:48:19;-1.50;99.90
10278;DHT22;5184;51.376;7.148;2023-02-28T00:50:48;-1.50;99.90
10278;DHT22;5184;51.376;7.148;2023-02-28T00:53:13;-1.50;99.90
10278;DHT22;5184;51.376;7.148;2023-02-28T00:55:40;-1.50;99.90
10278;DHT22;5184;51.376;7.148;2023-02-28T00:58:07;-1.60;99.90
10278;DHT22;5184;51.376;7.148;2023-02-28T01:00:34;-1.50;99.90
10278;DHT22;5184;51.376;7.148;2023-02-28T01:03:01;-1.60;99.90
10278;DHT22;5184;51.376;7.148;2023-02-28T01:05:28;-1.60;99.90
10278;DHT22;5184;51.376;7.148;2023-02-28T01:07:54;-1.60;99.90
10278;DHT22;5184;51.376;7.148;2023-02-28T01:10:21;-1.60;99.90
10278;DHT22;5184;51.376;7.148;2023-02-28T01:12:48;-1.60;99.90
10278;DHT22;5184;51.376;7.148;2023-02-28T01:15:15;-1.70;99.90
10278;DHT22;5184;51.376;7.148;2023-02-28T01:17:42;-1.70;99.90
10278;DHT22;5184;51.376;7.148;2023-02-28T01:20:09;-1.70;99.90
10278;DHT22;5184;51.376;7.148;2023-02-28T01:22:36;-1.70;1.00
10278;DHT22;5184;51.376;7.148;2023-02-28T01:25:04;-1.70;1.00
10278;DHT22;5184;51.376;7.148;2023-02-28T01:27:30;-1.80;1.00
10278;DHT22;5184;51.376;7.148;2023-02-28T01:29:57;-1.80;1.00
10278;DHT22;5184;51.376;7.148;2023-02-28T01:32:24;-1.70;4.50
10278;DHT22;5184;51.376;7.148;2023-02-28T01:34:50;-1.80;99.90
10278;DHT22;5184;51.376;7.148;2023-02-28T01:37:18;-1.80;99.90
10278;DHT22;5184;51.376;7.148;2023-02-28T01:39:44;-1.80;99.90
10278;DHT22;5184;51.376;7.148;2023-02-28T01:42:12;-1.80;99.90
10278;DHT22;5184;51.376;7.148;2023-02-28T01:47:18;-1.90;1.00
10278;DHT22;5184;51.376;7.148;2023-02-28T01:49:44;-1.90;1.00
10278;DHT22;5184;51.376;7.148;2023-02-28T01:52:12;-1.90;99.90
10278;DHT22;5184;51.376;7.148;2023-02-28T01:54:41;-1.90;1.00
10278;DHT22;5184;51.376;7.148;2023-02-28T01:57:09;-2.00;1.00
10278;DHT22;5184;51.376;7.148;2023-02-28T01:59:41;-2.10;1.00
10278;DHT22;5184;51.376;7.148;2023-02-28T02:02:05;-2.10;1.00
10278;DHT22;5184;51.376;7.148;2023-02-28T02:04:34;-2.10;1.00
10278;DHT22;5184;51.376;7.148;2023-02-28T02:06:59;-2.20;99.90
10278;DHT22;5184;51.376;7.148;2023-02-28T02:09:26;-2.20;99.90
10278;DHT22;5184;51.376;7.148;2023-02-28T02:11:53;-2.30;1.00
10278;DHT22;5184;51.376;7.148;2023-02-28T02:15:00;-2.30;1.00
10278;DHT22;5184;51.376;7.148;2023-02-28T02:17:22;-2.30;5.80
10278;DHT22;5184;51.376;7.148;2023-02-28T02:23:07;-2.30;27.40
10278;DHT22;5184;51.376;7.148;2023-02-28T02:25:39;-2.30;99.90
10278;DHT22;5184;51.376;7.148;2023-02-28T02:28:29;-2.30;99.90
10278;DHT22;5184;51.376;7.148;2023-02-28T02:31:18;-2.30;99.90
10278;DHT22;5184;51.376;7.148;2023-02-28T02:36:29;-2.40;1.00
10278;DHT22;5184;51.376;7.148;2023-02-28T02:39:03;-2.40;1.00
10278;DHT22;5184;51.376;7.148;2023-02-28T02:41:33;-2.40;1.00
10278;DHT22;5184;51.376;7.148;2023-02-28T02:43:58;-2.40;1.00
10278;DHT22;5184;51.376;7.148;2023-02-28T02:46:28;-2.40;99.90
10278;DHT22;5184;51.376;7.148;2023-02-28T02:48:54;-2.40;1.00
10278;DHT22;5184;51.376;7.148;2023-02-28T02:51:21;-2.40;1.00
10278;DHT22;5184;51.376;7.148;2023-02-28T02:53:49;-2.40;1.00
10278;DHT22;5184;51.376;7.148;2023-02-28T02:56:14;-2.40;1.00
10278;DHT22;5184;51.376;7.148;2023-02-28T02:58:41;-2.40;1.00
10278;DHT22;5184;51.376;7.148;2023-02-28T03:01:08;-2.40;1.00
10278;DHT22;5184;51.376;7.148;2023-02-28T03:03:35;-2.40;1.00
10278;DHT22;5184;51.376;7.148;2023-02-28T03:06:03;-2.40;1.00
10278;DHT22;5184;51.376;7.148;2023-02-28T03:08:33;-2.40;1.00
10278;DHT22;5184;51.376;7.148;2023-02-28T03:10:58;-2.40;1.00
10278;DHT22;5184;51.376;7.148;2023-02-28T03:13:42;-2.40;1.00
10278;DHT22;5184;51.376;7.148;2023-02-28T03:16:28;-2.50;1.00
10278;DHT22;5184;51.376;7.148;2023-02-28T03:21:46;-2.50;8.00
10278;DHT22;5184;51.376;7.148;2023-02-28T03:24:14;-2.50;49.20
10278;DHT22;5184;51.376;7.148;2023-02-28T03:26:41;-2.50;92.40
10278;DHT22;5184;51.376;7.148;2023-02-28T03:29:18;-2.50;99.90
10278;DHT22;5184;51.376;7.148;2023-02-28T03:31:44;-2.50;99.90
10278;DHT22;5184;51.376;7.148;2023-02-28T03:34:16;-2.60;99.90
10278;DHT22;5184;51.376;7.148;2023-02-28T03:36:42;-2.60;99.90
10278;DHT22;5184;51.376;7.148;2023-02-28T03:39:28;-2.70;99.90
10278;DHT22;5184;51.376;7.148;2023-02-28T03:42:07;-2.70;99.90
10278;DHT22;5184;51.376;7.148;2023-02-28T03:44:34;-2.70;99.90
10278;DHT22;5184;51.376;7.148;2023-02-28T03:47:01;-2.70;99.90
10278;DHT22;5184;51.376;7.148;2023-02-28T03:49:27;-2.70;99.90
10278;DHT22;5184;51.376;7.148;2023-02-28T03:51:53;-2.60;99.90
10278;DHT22;5184;51.376;7.148;2023-02-28T03:54:23;-2.70;99.90
10278;DHT22;5184;51.376;7.148;2023-02-28T03:56:51;-2.70;99.90
10278;DHT22;5184;51.376;7.148;2023-02-28T03:59:18;-2.70;99.90
10278;DHT22;5184;51.376;7.148;2023-02-28T04:01:43;-2.70;16.70
10278;DHT22;5184;51.376;7.148;2023-02-28T04:04:10;-2.80;1.00
10278;DHT22;5184;51.376;7.148;2023-02-28T04:06:37;-2.90;1.00
10278;DHT22;5184;51.376;7.148;2023-02-28T04:09:05;-2.90;1.00
10278;DHT22;5184;51.376;7.148;2023-02-28T04:11:32;-2.90;1.00
10278;DHT22;5184;51.376;7.148;2023-02-28T04:13:58;-2.90;1.00
10278;DHT22;5184;51.376;7.148;2023-02-28T04:16:24;-2.90;1.00
10278;DHT22;5184;51.376;7.148;2023-02-28T04:18:51;-2.90;1.00
10278;DHT22;5184;51.376;7.148;2023-02-28T04:21:18;-3.00;1.00
10278;DHT22;5184;51.376;7.148;2023-02-28T04:23:47;-3.00;1.00
10278;DHT22;5184;51.376;7.148;2023-02-28T04:26:14;-2.90;1.00
10278;DHT22;5184;51.376;7.148;2023-02-28T04:28:42;-2.90;1.00
10278;DHT22;5184;51.376;7.148;2023-02-28T04:31:09;-2.90;1.00
10278;DHT22;5184;51.376;7.148;2023-02-28T04:33:36;-3.00;1.00
10278;DHT22;5184;51.376;7.148;2023-02-28T04:36:04;-3.00;1.00
10278;DHT22;5184;51.376;7.148;2023-02-28T04:38:32;-3.00;1.00
10278;DHT22;5184;51.376;7.148;2023-02-28T04:40:57;-3.00;1.00
10278;DHT22;5184;51.376;7.148;2023-02-28T04:43:23;-3.10;1.00
10278;DHT22;5184;51.376;7.148;2023-02-28T04:45:50;-3.10;1.00
10278;DHT22;5184;51.376;7.148;2023-02-28T04:48:16;-3.10;1.00
10278;DHT22;5184;51.376;7.148;2023-02-28T04:50:43;-3.10;1.00
10278;DHT22;5184;51.376;7.148;2023-02-28T04:53:10;-3.20;1.00
10278;DHT22;5184;51.376;7.148;2023-02-28T04:55:37;-3.20;1.00
10278;DHT22;5184;51.376;7.148;2023-02-28T04:58:04;-3.20;1.00
10278;DHT22;5184;51.376;7.148;2023-02-28T05:00:30;-3.20;1.00
10278;DHT22;5184;51.376;7.148;2023-02-28T05:02:57;-3.20;99.90
10278;DHT22;5184;51.376;7.148;2023-02-28T05:05:25;-3.20;99.90
10278;DHT22;5184;51.376;7.148;2023-02-28T05:07:51;-3.20;99.90
10278;DHT22;5184;51.376;7.148;2023-02-28T05:10:18;-3.20;99.90
10278;DHT22;5184;51.376;7.148;2023-02-28T05:12:45;-3.20;99.90
10278;DHT22;5184;51.376;7.148;2023-02-28T05:15:12;-3.20;99.90
10278;DHT22;5184;51.376;7.148;2023-02-28T05:17:39;-3.20;99.90
10278;DHT22;5184;51.376;7.148;2023-02-28T05:20:06;-3.30;99.90
10278;DHT22;5184;51.376;7.148;2023-02-28T05:22:33;-3.30;99.90
10278;DHT22;5184;51.376;7.148;2023-02-28T05:25:00;-3.30;99.90
10278;DHT22;5184;51.376;7.148;2023-02-28T05:27:27;-3.30;99.90
10278;DHT22;5184;51.376;7.148;2023-02-28T05:29:54;-3.30;99.90
10278;DHT22;5184;51.376;7.148;2023-02-28T05:32:22;-3.30;99.90
10278;DHT22;5184;51.376;7.148;2023-02-28T05:34:48;-3.30;99.90
10278;DHT22;5184;51.376;7.148;2023-02-28T05:37:15;-3.30;99.90
10278;DHT22;5184;51.376;7.148;2023-02-28T05:39:42;-3.30;1.00
10278;DHT22;5184;51.376;7.148;2023-02-28T05:42:08;-3.30;1.00
10278;DHT22;5184;51.376;7.148;2023-02-28T05:44:35;-3.30;99.90
10278;DHT22;5184;51.376;7.148;2023-02-28T05:47:01;-3.40;99.90
10278;DHT22;5184;51.376;7.148;2023-02-28T05:49:28;-3.40;99.90
10278;DHT22;5184;51.376;7.148;2023-02-28T05:51:55;-3.40;99.90
10278;DHT22;5184;51.376;7.148;2023-02-28T05:54:22;-3.40;99.90
10278;DHT22;5184;51.376;7.148;2023-02-28T05:56:48;-3.50;99.90
10278;DHT22;5184;51.376;7.148;2023-02-28T05:59:15;-3.40;99.90
10278;DHT22;5184;51.376;7.148;2023-02-28T06:01:42;-3.50;99.90
10278;DHT22;5184;51.376;7.148;2023-02-28T06:04:09;-3.50;99.90
10278;DHT22;5184;51.376;7.148;2023-02-28T06:06:36;-3.50;91.40
10278;DHT22;5184;51.376;7.148;2023-02-28T06:09:03;-3.50;1.00
10278;DHT22;5184;51.376;7.148;2023-02-28T06:11:30;-3.60;1.00
10278;DHT22;5184;51.376;7.148;2023-02-28T06:13:58;-3.60;1.00
10278;DHT22;5184;51.376;7.148;2023-02-28T06:16:24;-3.60;1.00
10278;DHT22;5184;51.376;7.148;2023-02-28T06:18:50;-3.60;1.00
10278;DHT22;5184;51.376;7.148;2023-02-28T06:21:17;-3.60;1.00
10278;DHT22;5184;51.376;7.148;2023-02-28T06:23:43;-3.60;1.00
10278;DHT22;5184;51.376;7.148;2023-02-28T06:26:11;-3.70;1.00
10278;DHT22;5184;51.376;7.148;2023-02-28T06:28:38;-3.70;99.90
10278;DHT22;5184;51.376;7.148;2023-02-28T06:31:09;-3.70;99.90
10278;DHT22;5184;51.376;7.148;2023-02-28T06:33:36;-3.70;99.90
10278;DHT22;5184;51.376;7.148;2023-02-28T06:36:02;-3.70;99.90
10278;DHT22;5184;51.376;7.148;2023-02-28T06:38:29;-3.70;54.60
10278;DHT22;5184;51.376;7.148;2023-02-28T06:40:56;-3.80;1.00
10278;DHT22;5184;51.376;7.148;2023-02-28T06:43:23;-3.70;47.20
10278;DHT22;5184;51.376;7.148;2023-02-28T06:45:49;-3.70;53.30
10278;DHT22;5184;51.376;7.148;2023-02-28T06:48:15;-3.70;99.90
10278;DHT22;5184;51.376;7.148;2023-02-28T06:50:42;-3.70;28.20
10278;DHT22;5184;51.376;7.148;2023-02-28T06:53:09;-3.70;56.90
10278;DHT22;5184;51.376;7.148;2023-02-28T06:55:38;-3.60;99.90
10278;DHT22;5184;51.376;7.148;2023-02-28T06:58:04;-3.60;99.90
10278;DHT22;5184;51.376;7.148;2023-02-28T07:00:31;-3.60;99.90
10278;DHT22;5184;51.376;7.148;2023-02-28T07:02:58;-3.50;99.90
10278;DHT22;5184;51.376;7.148;2023-02-28T07:05:25;-3.40;99.90
10278;DHT22;5184;51.376;7.148;2023-02-28T07:07:52;-3.50;99.90
10278;DHT22;5184;51.376;7.148;2023-02-28T07:10:18;-3.40;99.90
10278;DHT22;5184;51.376;7.148;2023-02-28T07:12:45;-3.40;99.90
10278;DHT22;5184;51.376;7.148;2023-02-28T07:15:11;-3.30;99.90
10278;DHT22;5184;51.376;7.148;2023-02-28T07:17:38;-3.30;1.00
10278;DHT22;5184;51.376;7.148;2023-02-28T07:20:05;-3.30;1.00
10278;DHT22;5184;51.376;7.148;2023-02-28T07:22:32;-3.30;1.00
10278;DHT22;5184;51.376;7.148;2023-02-28T07:24:59;-3.30;1.00
10278;DHT22;5184;51.376;7.148;2023-02-28T07:27:26;-3.30;1.00
10278;DHT22;5184;51.376;7.148;2023-02-28T07:29:53;-3.00;1.00
10278;DHT22;5184;51.376;7.148;2023-02-28T07:32:20;-2.70;1.00
10278;DHT22;5184;51.376;7.148;2023-02-28T07:34:47;-2.70;1.00
10278;DHT22;5184;51.376;7.148;2023-02-28T07:37:14;-2.70;1.00
10278;DHT22;5184;51.376;7.148;2023-02-28T07:39:40;-2.70;99.90
10278;DHT22;5184;51.376;7.148;2023-02-28T07:42:08;-2.80;1.00
10278;DHT22;5184;51.376;7.148;2023-02-28T07:44:34;-2.80;1.00
10278;DHT22;5184;51.376;7.148;2023-02-28T07:47:01;-2.90;99.90
10278;DHT22;5184;51.376;7.148;2023-02-28T07:49:28;-2.90;99.90
10278;DHT22;5184;51.376;7.148;2023-02-28T07:51:54;-2.90;99.90
10278;DHT22;5184;51.376;7.148;2023-02-28T07:54:21;-2.90;1.00
10278;DHT22;5184;51.376;7.148;2023-02-28T07:56:48;-2.80;1.00
10278;DHT22;5184;51.376;7.148;2023-02-28T07:59:15;-2.70;1.00
10278;DHT22;5184;51.376;7.148;2023-02-28T08:01:42;-2.60;1.00
10278;DHT22;5184;51.376;7.148;2023-02-28T08:04:09;-2.70;1.00
10278;DHT22;5184;51.376;7.148;2023-02-28T08:06:36;-2.50;1.00
10278;DHT22;5184;51.376;7.148;2023-02-28T08:09:03;-2.20;99.90
10278;DHT22;5184;51.376;7.148;2023-02-28T08:11:30;-2.20;99.90
10278;DHT22;5184;51.376;7.148;2023-02-28T08:13:57;-2.00;99.90
10278;DHT22;5184;51.376;7.148;2023-02-28T08:16:24;-2.10;99.90
10278;DHT22;5184;51.376;7.148;2023-02-28T08:18:51;-1.80;99.90
10278;DHT22;5184;51.376;7.148;2023-02-28T08:21:19;-1.40;99.90
10278;DHT22;5184;51.376;7.148;2023-02-28T08:23:47;-1.80;99.90
10278;DHT22;5184;51.376;7.148;2023-02-28T08:26:13;-1.70;1.00
10278;DHT22;5184;51.376;7.148;2023-02-28T08:28:40;-1.70;99.90
10278;DHT22;5184;51.376;7.148;2023-02-28T08:31:07;-1.70;99.90
10278;DHT22;5184;51.376;7.148;2023-02-28T08:33:34;-1.40;99.90
10278;DHT22;5184;51.376;7.148;2023-02-28T08:36:01;-1.40;99.90
10278;DHT22;5184;51.376;7.148;2023-02-28T08:38:27;-1.30;1.00
10278;DHT22;5184;51.376;7.148;2023-02-28T08:40:59;-1.30;99.90
10278;DHT22;5184;51.376;7.148;2023-02-28T08:43:25;-1.10;1.00
10278;DHT22;5184;51.376;7.148;2023-02-28T08:45:53;-1.00;1.00
10278;DHT22;5184;51.376;7.148;2023-02-28T08:48:19;-1.10;1.00
10278;DHT22;5184;51.376;7.148;2023-02-28T08:51:02;-1.00;1.00
10278;DHT22;5184;51.376;7.148;2023-02-28T08:53:28;-1.00;99.90
10278;DHT22;5184;51.376;7.148;2023-02-28T08:55:59;-1.00;99.90
10278;DHT22;5184;51.376;7.148;2023-02-28T08:58:25;-1.00;99.90
10278;DHT22;5184;51.376;7.148;2023-02-28T09:00:52;-0.80;99.90
10278;DHT22;5184;51.376;7.148;2023-02-28T09:03:20;-0.70;99.90
10278;DHT22;5184;51.376;7.148;2023-02-28T09:05:55;-0.60;1.00
10278;DHT22;5184;51.376;7.148;2023-02-28T09:08:21;-0.50;1.00
10278;DHT22;5184;51.376;7.148;2023-02-28T09:10:48;-0.40;1.00
10278;DHT22;5184;51.376;7.148;2023-02-28T09:13:17;-0.30;1.00
10278;DHT22;5184;51.376;7.148;2023-02-28T09:15:43;-0.30;1.00
10278;DHT22;5184;51.376;7.148;2023-02-28T09:18:10;-0.20;86.50
10278;DHT22;5184;51.376;7.148;2023-02-28T09:20:38;-0.20;1.00
10278;DHT22;5184;51.376;7.148;2023-02-28T09:23:04;-0.20;1.00
10278;DHT22;5184;51.376;7.148;2023-02-28T09:25:30;-0.30;1.00
10278;DHT22;5184;51.376;7.148;2023-02-28T09:27:58;0.00;1.00
10278;DHT22;5184;51.376;7.148;2023-02-28T09:30:25;0.20;99.90
10278;DHT22;5184;51.376;7.148;2023-02-28T09:32:52;0.30;99.90
10278;DHT22;5184;51.376;7.148;2023-02-28T09:35:21;0.30;1.00
10278;DHT22;5184;51.376;7.148;2023-02-28T09:37:48;0.30;1.00
10278;DHT22;5184;51.376;7.148;2023-02-28T09:40:15;0.40;1.00
10278;DHT22;5184;51.376;7.148;2023-02-28T09:42:41;0.40;1.00
10278;DHT22;5184;51.376;7.148;2023-02-28T09:45:16;0.40;1.00
10278;DHT22;5184;51.376;7.148;2023-02-28T09:47:40;0.40;1.00
10278;DHT22;5184;51.376;7.148;2023-02-28T09:50:23;0.40;1.00
10278;DHT22;5184;51.376;7.148;2023-02-28T09:52:48;0.40;1.00
10278;DHT22;5184;51.376;7.148;2023-02-28T09:55:33;0.60;99.90
10278;DHT22;5184;51.376;7.148;2023-02-28T09:57:58;0.80;99.90
10278;DHT22;5184;51.376;7.148;2023-02-28T10:00:33;1.00;1.00
10278;DHT22;5184;51.376;7.148;2023-02-28T10:03:30;1.10;1.00
10278;DHT22;5184;51.376;7.148;2023-02-28T10:06:14;1.10;1.00
10278;DHT22;5184;51.376;7.148;2023-02-28T10:08:48;1.00;1.00
10278;DHT22;5184;51.376;7.148;2023-02-28T10:11:14;1.00;1.00
10278;DHT22;5184;51.376;7.148;2023-02-28T10:13:48;1.00;1.00
10278;DHT22;5184;51.376;7.148;2023-02-28T10:16:14;1.00;99.90
10278;DHT22;5184;51.376;7.148;2023-02-28T10:18:43;1.30;99.90
10278;DHT22;5184;51.376;7.148;2023-02-28T10:21:10;1.30;1.00
10278;DHT22;5184;51.376;7.148;2023-02-28T10:23:34;1.40;1.00
10278;DHT22;5184;51.376;7.148;2023-02-28T10:26:18;1.50;99.90
10278;DHT22;5184;51.376;7.148;2023-02-28T10:28:45;1.80;1.00
10278;DHT22;5184;51.376;7.148;2023-02-28T10:31:17;2.00;1.00
10278;DHT22;5184;51.376;7.148;2023-02-28T10:33:41;2.00;1.00
10278;DHT22;5184;51.376;7.148;2023-02-28T10:36:10;2.20;1.00
10278;DHT22;5184;51.376;7.148;2023-02-28T10:38:36;2.40;1.00
10278;DHT22;5184;51.376;7.148;2023-02-28T10:41:05;2.30;99.90
10278;DHT22;5184;51.376;7.148;2023-02-28T10:43:31;2.10;99.90
10278;DHT22;5184;51.376;7.148;2023-02-28T10:46:03;2.10;99.90
10278;DHT22;5184;51.376;7.148;2023-02-28T10:48:33;2.20;99.90
10278;DHT22;5184;51.376;7.148;2023-02-28T10:50:58;2.20;99.90
10278;DHT22;5184;51.376;7.148;2023-02-28T10:53:32;2.20;99.90
10278;DHT22;5184;51.376;7.148;2023-02-28T10:56:14;2.40;99.90
10278;DHT22;5184;51.376;7.148;2023-02-28T10:58:50;2.60;99.90
10278;DHT22;5184;51.376;7.148;2023-02-28T11:01:16;2.50;99.90
10278;DHT22;5184;51.376;7.148;2023-02-28T11:03:42;2.70;83.00
10278;DHT22;5184;51.376;7.148;2023-02-28T11:06:25;2.70;99.90
10278;DHT22;5184;51.376;7.148;2023-02-28T11:08:53;3.10;91.00
10278;DHT22;5184;51.376;7.148;2023-02-28T11:11:19;3.10;87.20
10278;DHT22;5184;51.376;7.148;2023-02-28T11:13:46;3.00;1.00
10278;DHT22;5184;51.376;7.148;2023-02-28T11:16:12;3.00;48.30
10278;DHT22;5184;51.376;7.148;2023-02-28T11:18:49;3.10;68.00
10278;DHT22;5184;51.376;7.148;2023-02-28T11:21:23;3.10;16.30
10278;DHT22;5184;51.376;7.148;2023-02-28T11:23:49;3.20;7.40
10278;DHT22;5184;51.376;7.148;2023-02-28T11:26:16;3.30;1.00
10278;DHT22;5184;51.376;7.148;2023-02-28T11:28:43;3.40;4.00
10278;DHT22;5184;51.376;7.148;2023-02-28T11:31:16;3.60;1.00
10278;DHT22;5184;51.376;7.148;2023-02-28T11:33:48;3.60;1.00
10278;DHT22;5184;51.376;7.148;2023-02-28T11:36:15;3.60;1.00
10278;DHT22;5184;51.376;7.148;2023-02-28T11:38:41;3.70;1.00
10278;DHT22;5184;51.376;7.148;2023-02-28T11:41:16;3.80;1.00
10278;DHT22;5184;51.376;7.148;2023-02-28T11:43:50;3.80;1.00
10278;DHT22;5184;51.376;7.148;2023-02-28T11:48:58;3.90;1.00
10278;DHT22;5184;51.376;7.148;2023-02-28T11:51:27;3.80;1.00
10278;DHT22;5184;51.376;7.148;2023-02-28T11:54:01;3.80;1.00
10278;DHT22;5184;51.376;7.148;2023-02-28T11:57:07;4.00;1.00
10278;DHT22;5184;51.376;7.148;2023-02-28T11:59:27;4.00;1.00
10278;DHT22;5184;51.376;7.148;2023-02-28T12:02:05;4.20;1.00
10278;DHT22;5184;51.376;7.148;2023-02-28T12:04:37;4.30;1.00
10278;DHT22;5184;51.376;7.148;2023-02-28T12:07:06;4.00;1.00
10278;DHT22;5184;51.376;7.148;2023-02-28T12:09:39;4.00;1.00
10278;DHT22;5184;51.376;7.148;2023-02-28T12:12:19;3.80;1.00
10278;DHT22;5184;51.376;7.148;2023-02-28T12:14:57;3.80;1.00
10278;DHT22;5184;51.376;7.148;2023-02-28T12:17:32;3.70;1.00
10278;DHT22;5184;51.376;7.148;2023-02-28T12:20:02;3.70;1.00
10278;DHT22;5184;51.376;7.148;2023-02-28T12:22:30;3.80;1.00
10278;DHT22;5184;51.376;7.148;2023-02-28T12:25:16;3.80;1.00
10278;DHT22;5184;51.376;7.148;2023-02-28T12:27:37;3.90;1.00
10278;DHT22;5184;51.376;7.148;2023-02-28T12:30:04;3.90;1.00
10278;DHT22;5184;51.376;7.148;2023-02-28T12:32:32;4.00;1.00
10278;DHT22;5184;51.376;7.148;2023-02-28T12:35:02;4.00;1.00
10278;DHT22;5184;51.376;7.148;2023-02-28T12:37:30;4.10;1.00
10278;DHT22;5184;51.376;7.148;2023-02-28T12:39:55;4.20;1.00
10278;DHT22;5184;51.376;7.148;2023-02-28T12:42:27;4.30;1.00
10278;DHT22;5184;51.376;7.148;2023-02-28T12:44:54;4.30;1.00
10278;DHT22;5184;51.376;7.148;2023-02-28T12:47:19;4.30;1.00
10278;DHT22;5184;51.376;7.148;2023-02-28T12:49:50;4.40;1.00
10278;DHT22;5184;51.376;7.148;2023-02-28T12:52:17;4.30;1.00
10278;DHT22;5184;51.376;7.148;2023-02-28T12:54:49;4.20;1.00
10278;DHT22;5184;51.376;7.148;2023-02-28T12:57:19;4.00;1.00
10278;DHT22;5184;51.376;7.148;2023-02-28T12:59:48;5.10;1.00
10278;DHT22;5184;51.376;7.148;2023-02-28T13:10:22;4.70;1.00
10278;DHT22;5184;51.376;7.148;2023-02-28T13:12:50;4.50;1.00
10278;DHT22;5184;51.376;7.148;2023-02-28T13:15:18;4.50;1.00
10278;DHT22;5184;51.376;7.148;2023-02-28T13:17:43;4.60;1.00
10278;DHT22;5184;51.376;7.148;2023-02-28T13:20:18;4.70;1.00
10278;DHT22;5184;51.376;7.148;2023-02-28T13:22:46;4.80;1.00
10278;DHT22;5184;51.376;7.148;2023-02-28T13:28:08;4.80;1.00
10278;DHT22;5184;51.376;7.148;2023-02-28T13:35:47;4.90;1.00
10278;DHT22;5184;51.376;7.148;2023-02-28T13:38:16;4.90;1.00
10278;DHT22;5184;51.376;7.148;2023-02-28T13:40:41;4.90;1.00
10278;DHT22;5184;51.376;7.148;2023-02-28T13:43:08;5.00;1.00
10278;DHT22;5184;51.376;7.148;2023-02-28T13:45:34;5.00;1.00
10278;DHT22;5184;51.376;7.148;2023-02-28T13:48:02;5.00;1.00
10278;DHT22;5184;51.376;7.148;2023-02-28T13:50:30;5.00;1.00
10278;DHT22;5184;51.376;7.148;2023-02-28T13:53:30;5.00;1.00
10278;DHT22;5184;51.376;7.148;2023-02-28T13:56:07;5.00;1.00
10278;DHT22;5184;51.376;7.148;2023-02-28T13:58:41;5.10;1.00
10278;DHT22;5184;51.376;7.148;2023-02-28T14:04:09;5.10;1.00
10278;DHT22;5184;51.376;7.148;2023-02-28T14:06:33;5.20;1.00
10278;DHT22;5184;51.376;7.148;2023-02-28T14:09:03;5.20;1.00
10278;DHT22;5184;51.376;7.148;2023-02-28T14:11:33;5.20;1.00
10278;DHT22;5184;51.376;7.148;2023-02-28T14:13:59;5.20;1.00
10278;DHT22;5184;51.376;7.148;2023-02-28T14:16:26;5.20;1.00
10278;DHT22;5184;51.376;7.148;2023-02-28T14:18:56;5.20;1.00
10278;DHT22;5184;51.376;7.148;2023-02-28T14:21:32;5.30;1.00
10278;DHT22;5184;51.376;7.148;2023-02-28T14:24:10;5.30;1.00
10278;DHT22;5184;51.376;7.148;2023-02-28T14:27:00;5.30;1.00
10278;DHT22;5184;51.376;7.148;2023-02-28T14:32:34;5.40;1.00
10278;DHT22;5184;51.376;7.148;2023-02-28T14:37:33;5.60;1.00
10278;DHT22;5184;51.376;7.148;2023-02-28T14:39:59;5.60;1.00
10278;DHT22;5184;51.376;7.148;2023-02-28T14:42:33;5.60;1.00
10278;DHT22;5184;51.376;7.148;2023-02-28T14:44:59;5.50;1.00
10278;DHT22;5184;51.376;7.148;2023-02-28T14:47:28;5.50;1.00
10278;DHT22;5184;51.376;7.148;2023-02-28T14:49:54;5.50;1.00
10278;DHT22;5184;51.376;7.148;2023-02-28T14:52:22;5.50;1.00
10278;DHT22;5184;51.376;7.148;2023-02-28T14:54:52;5.60;1.00
10278;DHT22;5184;51.376;7.148;2023-02-28T14:57:31;5.60;1.00
10278;DHT22;5184;51.376;7.148;2023-02-28T15:00:14;5.60;1.00
10278;DHT22;5184;51.376;7.148;2023-02-28T15:02:40;5.70;1.00
10278;DHT22;5184;51.376;7.148;2023-02-28T15:05:24;5.80;1.00
10278;DHT22;5184;51.376;7.148;2023-02-28T15:07:59;5.80;1.00
10278;DHT22;5184;51.376;7.148;2023-02-28T15:10:21;5.80;1.00
10278;DHT22;5184;51.376;7.148;2023-02-28T15:13:07;5.80;1.00
10278;DHT22;5184;51.376;7.148;2023-02-28T15:15:46;5.70;1.00
10278;DHT22;5184;51.376;7.148;2023-02-28T15:18:49;5.70;1.00
10278;DHT22;5184;51.376;7.148;2023-02-28T15:21:01;5.70;1.00
10278;DHT22;5184;51.376;7.148;2023-02-28T15:23:26;5.60;1.00
10278;DHT22;5184;51.376;7.148;2023-02-28T15:25:53;5.70;1.00
10278;DHT22;5184;51.376;7.148;2023-02-28T15:28:21;5.70;1.00
10278;DHT22;5184;51.376;7.148;2023-02-28T15:30:56;5.90;1.00
10278;DHT22;5184;51.376;7.148;2023-02-28T15:33:23;6.00;1.00
10278;DHT22;5184;51.376;7.148;2023-02-28T15:35:49;6.40;1.00
10278;DHT22;5184;51.376;7.148;2023-02-28T15:38:23;6.80;1.00
10278;DHT22;5184;51.376;7.148;2023-02-28T15:40:57;8.40;1.00
10278;DHT22;5184;51.376;7.148;2023-02-28T15:46:05;9.20;1.00
10278;DHT22;5184;51.376;7.148;2023-02-28T15:48:32;9.70;1.00
10278;DHT22;5184;51.376;7.148;2023-02-28T15:51:05;10.30;99.90
10278;DHT22;5184;51.376;7.148;2023-02-28T15:53:30;10.30;99.90
10278;DHT22;5184;51.376;7.148;2023-02-28T15:55:56;10.10;99.90
10278;DHT22;5184;51.376;7.148;2023-02-28T15:58:22;10.20;99.90
10278;DHT22;5184;51.376;7.148;2023-02-28T16:03:41;10.20;99.90
10278;DHT22;5184;51.376;7.148;2023-02-28T16:09:06;9.70;99.90
10278;DHT22;5184;51.376;7.148;2023-02-28T16:11:32;9.50;99.90
10278;DHT22;5184;51.376;7.148;2023-02-28T16:13:58;9.30;99.90
10278;DHT22;5184;51.376;7.148;2023-02-28T16:16:26;9.20;99.90
10278;DHT22;5184;51.376;7.148;2023-02-28T16:18:52;9.30;99.90
10278;DHT22;5184;51.376;7.148;2023-02-28T16:21:19;9.60;99.90
10278;DHT22;5184;51.376;7.148;2023-02-28T16:23:46;9.10;99.90
10278;DHT22;5184;51.376;7.148;2023-02-28T16:26:18;9.10;99.90
10278;DHT22;5184;51.376;7.148;2023-02-28T16:28:42;9.00;99.90
10278;DHT22;5184;51.376;7.148;2023-02-28T16:31:09;9.20;99.90
10278;DHT22;5184;51.376;7.148;2023-02-28T16:33:36;9.10;1.00
10278;DHT22;5184;51.376;7.148;2023-02-28T16:36:05;9.40;99.90
10278;DHT22;5184;51.376;7.148;2023-02-28T16:38:31;9.20;99.90
10278;DHT22;5184;51.376;7.148;2023-02-28T16:40:59;9.00;99.90
10278;DHT22;5184;51.376;7.148;2023-02-28T16:43:26;8.50;99.90
10278;DHT22;5184;51.376;7.148;2023-02-28T16:45:55;7.90;99.90
10278;DHT22;5184;51.376;7.148;2023-02-28T16:48:21;7.90;99.90
10278;DHT22;5184;51.376;7.148;2023-02-28T16:50:48;7.50;1.00
10278;DHT22;5184;51.376;7.148;2023-02-28T16:53:14;7.20;1.00
10278;DHT22;5184;51.376;7.148;2023-02-28T16:55:41;6.80;1.00
10278;DHT22;5184;51.376;7.148;2023-02-28T16:58:10;6.40;1.00
10278;DHT22;5184;51.376;7.148;2023-02-28T17:00:34;5.90;1.00